Time;durP1;ratioP1;P1;durP2;ratioP2;P2;SDS_P1;SDS_P2;PMS_P1;PMS_P2;Temp;Humidity;BMP_temperature;BMP_pressure;BME280_temperature;BME280_humidity;BME280_pressure;Samples;Min_cycle;Max_cycle;Signal;HPM_P1;HPM_P2
2021/01/24 00:01:21;;;;;;;6.05;2.47;;;1.80;99.90;;;;;;4996767;28;20045;-75
2021/01/24 00:03:47;;;;;;;4.32;1.80;;;1.80;99.90;;;;;;5010906;28;20034;-75
2021/01/24 00:06:13;;;;;;;3.40;1.60;;;1.70;99.90;;;;;;5011245;28;20519;-75
2021/01/24 00:08:38;;;;;;;4.85;1.63;;;1.70;99.90;;;;;;5011272;28;20105;-75
2021/01/24 00:11:04;;;;;;;3.78;2.03;;;1.60;99.90;;;;;;5011174;28;20069;-75
2021/01/24 00:13:30;;;;;;;4.22;2.45;;;1.50;99.90;;;;;;5010939;28;20029;-75
2021/01/24 00:15:55;;;;;;;4.05;2.33;;;1.60;99.90;;;;;;5011335;28;20022;-75
2021/01/24 00:18:21;;;;;;;4.85;2.47;;;1.70;99.90;;;;;;5011184;28;20545;-75
2021/01/24 00:20:47;;;;;;;9.15;1.75;;;1.70;99.90;;;;;;5011307;28;20588;-76
2021/01/24 00:23:12;;;;;;;4.95;2.03;;;1.60;99.90;;;;;;5011190;28;20030;-75
2021/01/24 00:25:38;;;;;;;3.80;1.80;;;1.50;99.90;;;;;;5010975;28;20381;-75
2021/01/24 00:28:04;;;;;;;3.90;1.77;;;1.50;99.90;;;;;;5011158;28;20097;-75
2021/01/24 00:30:29;;;;;;;3.20;1.48;;;1.60;99.90;;;;;;5010736;28;20045;-75
2021/01/24 00:32:55;;;;;;;3.50;1.50;;;1.50;99.90;;;;;;5011223;28;20460;-75
2021/01/24 00:35:21;;;;;;;4.13;1.60;;;1.60;99.90;;;;;;5011073;28;20108;-74
2021/01/24 00:37:46;;;;;;;6.65;3.22;;;1.70;99.90;;;;;;5010981;28;20022;-75
2021/01/24 00:40:12;;;;;;;7.20;3.38;;;2.00;99.90;;;;;;5010909;28;20034;-76
2021/01/24 00:42:38;;;;;;;4.65;2.25;;;1.90;99.90;;;;;;5014472;28;20042;-75
2021/01/24 00:45:08;;;;;;;4.82;1.73;;;1.90;99.90;;;;;;5014558;28;20030;-75
2021/01/24 00:47:34;;;;;;;6.78;2.83;;;1.70;99.90;;;;;;5014250;28;20540;-75
2021/01/24 00:50:03;;;;;;;4.88;1.55;;;1.80;99.90;;;;;;5014432;28;20045;-75
2021/01/24 00:52:29;;;;;;;3.03;1.45;;;1.60;99.90;;;;;;5014339;28;20088;-75
2021/01/24 00:54:55;;;;;;;3.88;1.52;;;1.40;99.90;;;;;;5014346;28;20480;-74
2021/01/24 00:57:21;;;;;;;4.75;1.90;;;1.60;99.90;;;;;;5014233;28;20034;-75
2021/01/24 00:59:47;;;;;;;3.50;1.95;;;1.70;99.90;;;;;;5014480;28;20029;-75
2021/01/24 01:02:13;;;;;;;3.72;1.75;;;1.80;99.90;;;;;;5014147;28;20038;-75
2021/01/24 01:04:38;;;;;;;3.45;1.38;;;1.70;99.90;;;;;;5014345;28;20068;-75
2021/01/24 01:07:04;;;;;;;5.50;1.52;;;1.60;99.90;;;;;;5014081;28;20480;-75
2021/01/24 01:09:30;;;;;;;3.03;1.73;;;1.70;99.90;;;;;;5012596;28;20188;-74
2021/01/24 01:11:55;;;;;;;4.90;1.60;;;1.60;99.90;;;;;;5013604;28;20022;-76
2021/01/24 01:14:21;;;;;;;3.75;1.60;;;1.70;99.90;;;;;;5014008;28;20030;-75
2021/01/24 01:16:47;;;;;;;3.33;1.85;;;1.50;99.90;;;;;;5013432;28;20033;-75
2021/01/24 01:19:12;;;;;;;4.25;1.60;;;1.50;99.90;;;;;;5013821;28;20029;-76
2021/01/24 01:21:38;;;;;;;3.13;1.40;;;1.50;99.90;;;;;;5013448;28;20030;-75
2021/01/24 01:24:04;;;;;;;2.85;1.40;;;1.40;99.90;;;;;;5013652;28;20034;-75
2021/01/24 01:26:30;;;;;;;3.33;1.48;;;1.40;99.90;;;;;;5013561;28;20595;-76
2021/01/24 01:28:56;;;;;;;3.17;1.58;;;1.40;99.90;;;;;;5013784;28;20093;-75
2021/01/24 01:31:21;;;;;;;4.45;1.75;;;1.50;99.90;;;;;;5013578;28;20103;-76
2021/01/24 01:33:47;;;;;;;4.32;1.77;;;1.50;99.90;;;;;;5013425;28;20448;-75
2021/01/24 01:36:13;;;;;;;3.42;1.75;;;1.60;99.90;;;;;;5013519;28;20469;-75
2021/01/24 01:38:38;;;;;;;2.90;1.60;;;1.50;99.90;;;;;;5013362;28;20473;-75
2021/01/24 01:41:04;;;;;;;4.88;1.70;;;1.30;99.90;;;;;;5013501;28;20129;-81
2021/01/24 01:43:30;;;;;;;3.63;1.73;;;1.30;99.90;;;;;;5012115;28;20030;-75
2021/01/24 01:45:56;;;;;;;4.18;1.52;;;1.30;99.90;;;;;;5013303;28;20034;-75
2021/01/24 01:48:21;;;;;;;3.30;1.60;;;1.30;99.90;;;;;;5013456;28;20014;-75
2021/01/24 01:50:47;;;;;;;3.80;1.90;;;1.40;99.90;;;;;;5013191;28;20022;-75
2021/01/24 01:53:13;;;;;;;3.70;1.80;;;1.30;99.90;;;;;;5012923;28;20030;-75
2021/01/24 01:55:39;;;;;;;3.15;1.42;;;1.30;99.90;;;;;;5013083;28;20072;-75
2021/01/24 01:58:05;;;;;;;4.05;1.90;;;1.40;99.90;;;;;;5013354;28;20030;-74
2021/01/24 02:00:31;;;;;;;6.32;2.92;;;1.40;99.90;;;;;;5012920;28;20029;-75
2021/01/24 02:03:22;;;;;;;5.35;2.20;;;1.50;99.90;;;;;;5012831;28;20030;-75
2021/01/24 02:06:21;;;;;;;5.45;2.45;;;1.70;99.90;;;;;;5012806;28;20136;-75
2021/01/24 02:09:07;;;;;;;3.58;1.50;;;1.80;99.90;;;;;;5013063;28;20033;-76
2021/01/24 02:11:59;;;;;;;4.95;1.83;;;1.50;99.90;;;;;;5012619;28;20507;-75
2021/01/24 02:14:48;;;;;;;4.55;2.03;;;1.30;99.90;;;;;;5010819;28;20475;-75
2021/01/24 02:17:18;;;;;;;3.65;1.77;;;1.30;99.90;;;;;;5001906;28;20447;-75
2021/01/24 02:20:00;;;;;;;3.65;1.98;;;1.30;99.90;;;;;;5012610;28;20392;-75
2021/01/24 02:22:30;;;;;;;5.55;1.90;;;1.50;99.90;;;;;;5012501;28;20029;-74
2021/01/24 02:25:13;;;;;;;3.78;1.70;;;1.60;99.90;;;;;;5012646;28;20030;-75
2021/01/24 02:27:49;;;;;;;4.20;1.77;;;1.50;99.90;;;;;;5012654;28;20368;-75
2021/01/24 02:30:18;;;;;;;3.05;1.52;;;1.40;99.90;;;;;;5011280;28;20052;-75
2021/01/24 02:32:47;;;;;;;3.58;1.50;;;1.40;99.90;;;;;;5012313;28;20026;-75
2021/01/24 02:35:13;;;;;;;3.55;1.63;;;1.40;99.90;;;;;;5012413;28;20022;-75
2021/01/24 02:37:40;;;;;;;5.93;2.17;;;1.50;99.90;;;;;;5012254;28;20017;-75
2021/01/24 02:40:09;;;;;;;4.07;2.35;;;1.70;99.90;;;;;;5012376;28;20033;-75
2021/01/24 02:42:35;;;;;;;2.88;1.48;;;1.70;99.90;;;;;;5012193;28;20172;-75
2021/01/24 02:45:03;;;;;;;5.03;2.53;;;1.60;99.90;;;;;;5012242;28;20093;-79
2021/01/24 02:47:30;;;;;;;3.28;1.90;;;1.60;99.90;;;;;;5012293;28;20033;-75
2021/01/24 02:49:57;;;;;;;4.05;1.88;;;1.50;99.90;;;;;;5012470;28;20029;-75
2021/01/24 02:52:24;;;;;;;3.40;1.77;;;1.50;99.90;;;;;;5012169;28;20028;-75
2021/01/24 02:54:51;;;;;;;3.88;1.58;;;1.60;99.90;;;;;;5012006;28;20030;-75
2021/01/24 02:57:17;;;;;;;5.13;1.55;;;1.50;99.90;;;;;;5012130;28;20022;-75
2021/01/24 02:59:43;;;;;;;5.07;2.13;;;1.40;99.90;;;;;;5011864;28;20033;-75
2021/01/24 03:02:09;;;;;;;4.10;2.08;;;1.40;99.90;;;;;;5011998;28;20034;-76
2021/01/24 03:04:34;;;;;;;4.22;2.00;;;1.50;99.90;;;;;;5011531;28;20071;-75
2021/01/24 03:07:00;;;;;;;4.03;2.10;;;1.50;99.90;;;;;;5011955;28;20104;-75
2021/01/24 03:09:26;;;;;;;5.78;2.38;;;1.50;99.90;;;;;;5011917;28;20026;-75
2021/01/24 03:11:54;;;;;;;6.00;2.13;;;1.40;99.90;;;;;;5011821;28;20037;-75
2021/01/24 03:14:25;;;;;;;4.35;2.25;;;1.40;99.90;;;;;;5011984;28;20026;-75
2021/01/24 03:16:56;;;;;;;5.97;2.13;;;1.30;99.90;;;;;;5011786;28;20025;-74
2021/01/24 03:19:25;;;;;;;7.25;2.30;;;1.30;99.90;;;;;;5011782;28;20021;-75
2021/01/24 03:21:53;;;;;;;5.95;2.63;;;1.50;99.90;;;;;;5010088;28;20388;-75
2021/01/24 03:24:20;;;;;;;5.82;2.85;;;1.70;99.90;;;;;;5011614;28;20029;-76
2021/01/24 03:26:46;;;;;;;6.65;3.33;;;1.70;99.90;;;;;;5011698;28;20034;-75
2021/01/24 03:29:13;;;;;;;4.97;2.78;;;1.40;99.90;;;;;;5011566;28;20100;-74
2021/01/24 03:31:43;;;;;;;6.30;3.47;;;1.30;99.90;;;;;;5010894;28;20382;-75
2021/01/24 03:34:21;;;;;;;4.00;2.40;;;1.10;99.90;;;;;;5011605;28;20112;-75
2021/01/24 03:36:52;;;;;;;4.18;2.20;;;1.10;99.90;;;;;;5011593;28;20519;-75
2021/01/24 03:39:18;;;;;;;5.78;2.60;;;1.20;99.90;;;;;;5011676;28;20030;-75
2021/01/24 03:41:44;;;;;;;4.13;2.47;;;1.30;99.90;;;;;;5011252;28;20058;-75
2021/01/24 03:44:10;;;;;;;4.70;2.25;;;1.40;99.90;;;;;;5011435;28;20041;-74
2021/01/24 03:46:36;;;;;;;5.97;2.60;;;1.50;99.90;;;;;;5011370;28;20477;-75
2021/01/24 03:49:03;;;;;;;5.82;3.25;;;1.60;99.90;;;;;;5011461;28;20487;-76
2021/01/24 03:51:29;;;;;;;7.63;4.43;;;1.40;99.90;;;;;;5011291;28;20037;-77
2021/01/24 03:53:55;;;;;;;8.40;4.38;;;1.30;99.90;;;;;;5011791;28;20439;-75
2021/01/24 03:56:21;;;;;;;7.20;4.43;;;1.20;99.90;;;;;;5011784;28;20548;-75
2021/01/24 03:58:47;;;;;;;7.72;4.22;;;1.10;99.90;;;;;;5011309;28;20431;-75
2021/01/24 04:01:14;;;;;;;6.57;3.67;;;1.20;99.90;;;;;;5011171;28;20546;-75
2021/01/24 04:03:40;;;;;;;14.88;7.63;;;1.30;99.90;;;;;;5002303;28;20449;-77
2021/01/24 04:06:05;;;;;;;8.07;4.35;;;1.20;99.90;;;;;;5003545;28;20072;-79
2021/01/24 04:08:31;;;;;;;8.05;4.18;;;1.20;99.90;;;;;;5003197;28;20499;-77
2021/01/24 04:10:57;;;;;;;5.95;2.78;;;1.10;99.90;;;;;;5002687;28;20026;-77
2021/01/24 04:13:22;;;;;;;6.97;3.40;;;0.90;99.90;;;;;;5001414;28;20022;-77
2021/01/24 04:15:48;;;;;;;4.50;2.38;;;1.10;99.90;;;;;;5003790;28;20029;-79
2021/01/24 04:18:15;;;;;;;7.28;2.63;;;1.20;99.90;;;;;;5004916;28;20034;-78
2021/01/24 04:20:40;;;;;;;4.43;2.70;;;1.20;99.90;;;;;;5006798;28;20492;-79
2021/01/24 04:23:06;;;;;;;5.03;2.35;;;1.20;99.90;;;;;;5006439;28;20061;-76
2021/01/24 04:25:31;;;;;;;5.80;2.95;;;1.30;99.90;;;;;;5006701;28;20033;-76
2021/01/24 04:27:57;;;;;;;6.20;3.20;;;1.50;99.90;;;;;;5006765;28;20034;-78
2021/01/24 04:30:23;;;;;;;4.93;2.40;;;1.50;99.90;;;;;;5006374;28;20085;-76
2021/01/24 04:32:49;;;;;;;5.15;2.60;;;1.60;99.90;;;;;;5006152;28;20442;-81
2021/01/24 04:35:15;;;;;;;5.15;2.60;;;1.70;99.90;;;;;;5006506;28;20223;-76
2021/01/24 04:37:40;;;;;;;5.53;3.03;;;1.70;99.90;;;;;;5006454;28;20852;-79
2021/01/24 04:40:07;;;;;;;3.92;2.17;;;1.90;99.90;;;;;;5005023;28;20026;-75
2021/01/24 04:42:33;;;;;;;4.05;2.72;;;1.70;99.90;;;;;;5006277;28;20040;-77
2021/01/24 04:44:59;;;;;;;5.07;3.13;;;1.70;99.90;;;;;;5006393;28;20029;-76
2021/01/24 04:47:26;;;;;;;6.38;2.67;;;1.60;99.90;;;;;;5005918;28;20508;-76
2021/01/24 04:49:52;;;;;;;7.45;2.90;;;1.40;99.90;;;;;;5006354;28;20030;-75
2021/01/24 04:52:17;;;;;;;6.57;2.75;;;1.30;99.90;;;;;;5006119;28;20556;-77
2021/01/24 04:54:44;;;;;;;7.03;3.90;;;1.30;99.90;;;;;;5006025;28;20077;-79
2021/01/24 04:57:10;;;;;;;6.38;2.72;;;1.50;99.90;;;;;;5006152;28;20029;-80
2021/01/24 04:59:36;;;;;;;4.93;2.60;;;1.40;99.90;;;;;;5005882;28;20420;-76
2021/01/24 05:02:03;;;;;;;4.68;3.10;;;1.30;99.90;;;;;;5005381;28;20044;-80
2021/01/24 05:04:29;;;;;;;6.30;3.33;;;1.10;99.90;;;;;;5005715;28;20489;-81
2021/01/24 05:06:55;;;;;;;7.05;3.45;;;1.20;99.90;;;;;;5005952;28;20057;-79
2021/01/24 05:09:21;;;;;;;5.07;2.70;;;1.30;99.90;;;;;;5005686;28;20038;-80
2021/01/24 05:11:50;;;;;;;4.97;3.03;;;1.50;99.90;;;;;;5005744;28;20022;-78
2021/01/24 05:14:22;;;;;;;5.45;2.60;;;1.40;99.90;;;;;;5005744;28;20033;-75
2021/01/24 05:16:50;;;;;;;5.15;2.85;;;1.40;99.90;;;;;;5005317;28;20377;-76
2021/01/24 05:19:17;;;;;;;5.20;2.80;;;1.40;99.90;;;;;;5005400;28;20066;-80
2021/01/24 05:21:45;;;;;;;5.65;2.58;;;1.20;99.90;;;;;;5005352;28;20403;-76
2021/01/24 05:24:13;;;;;;;5.10;2.22;;;1.00;99.90;;;;;;5005449;28;20566;-76
2021/01/24 05:26:43;;;;;;;5.18;2.53;;;1.20;99.90;;;;;;5004757;28;20026;-77
2021/01/24 05:29:26;;;;;;;4.18;2.30;;;1.50;99.90;;;;;;5006152;28;20107;-76
2021/01/24 05:31:54;;;;;;;5.55;2.60;;;1.50;99.90;;;;;;5005529;28;20046;-76
2021/01/24 05:34:28;;;;;;;4.22;2.45;;;1.50;99.90;;;;;;5005050;28;20105;-78
2021/01/24 05:36:54;;;;;;;7.40;2.45;;;1.40;99.90;;;;;;5005410;28;20025;-78
2021/01/24 05:39:21;;;;;;;5.68;2.97;;;1.30;99.90;;;;;;5005666;28;20022;-74
2021/01/24 05:41:49;;;;;;;5.45;2.67;;;1.10;99.90;;;;;;5005192;28;20260;-77
2021/01/24 05:44:16;;;;;;;6.40;3.55;;;0.80;99.90;;;;;;5004696;28;20029;-76
2021/01/24 05:46:43;;;;;;;4.72;2.58;;;0.90;99.90;;;;;;5005266;28;20260;-77
2021/01/24 05:49:11;;;;;;;3.88;2.47;;;0.90;99.90;;;;;;5005113;28;20037;-76
2021/01/24 05:51:37;;;;;;;8.48;3.33;;;0.70;99.90;;;;;;5004897;28;20276;-77
2021/01/24 05:54:03;;;;;;;5.90;2.67;;;0.60;99.90;;;;;;5004944;28;20089;-77
2021/01/24 05:56:29;;;;;;;4.57;2.20;;;0.80;99.90;;;;;;5005172;28;20034;-77
2021/01/24 05:59:00;;;;;;;4.50;2.47;;;0.60;99.90;;;;;;5004883;28;20026;-81
2021/01/24 06:01:28;;;;;;;4.53;2.80;;;0.80;99.90;;;;;;5005111;28;20022;-77
2021/01/24 06:03:55;;;;;;;5.05;2.28;;;0.90;99.90;;;;;;5004545;28;20022;-76
2021/01/24 06:06:21;;;;;;;4.00;2.10;;;1.20;99.90;;;;;;5004480;28;20026;-75
2021/01/24 06:08:47;;;;;;;3.72;1.85;;;1.20;99.90;;;;;;5004936;28;20022;-76
2021/01/24 06:11:15;;;;;;;4.18;2.00;;;1.20;99.90;;;;;;5004071;28;20368;-75
2021/01/24 06:13:43;;;;;;;5.15;2.65;;;1.10;99.90;;;;;;5004534;28;20066;-78
2021/01/24 06:16:17;;;;;;;4.18;2.17;;;1.10;99.90;;;;;;5004401;28;20583;-82
2021/01/24 06:18:52;;;;;;;6.93;2.53;;;1.20;99.90;;;;;;5004767;28;20072;-77
2021/01/24 06:21:20;;;;;;;;;;;1.10;99.90;;;;;;5004690;28;20500;-77
2021/01/24 06:24:05;;;;;;;5.20;2.90;;;1.10;99.90;;;;;;5004551;28;19937;-78
2021/01/24 06:26:36;;;;;;;4.65;2.60;;;1.10;99.90;;;;;;5004310;28;20353;-76
2021/01/24 06:29:04;;;;;;;8.98;3.35;;;1.10;99.90;;;;;;5004322;28;20041;-75
2021/01/24 06:31:31;;;;;;;6.00;3.05;;;1.00;99.90;;;;;;5003795;28;20090;-76
2021/01/24 06:34:05;;;;;;;4.43;1.85;;;1.00;99.90;;;;;;5004614;28;20025;-77
2021/01/24 06:36:37;;;;;;;3.75;1.75;;;1.00;99.90;;;;;;5003963;28;20682;-76
2021/01/24 06:39:04;;;;;;;5.35;2.53;;;1.20;99.90;;;;;;5003400;28;20460;-78
2021/01/24 06:41:44;;;;;;;3.42;1.73;;;1.20;99.90;;;;;;5003935;28;20037;-76
2021/01/24 06:44:35;;;;;;;4.45;1.75;;;1.30;99.90;;;;;;5004342;28;20189;-79
2021/01/24 06:47:05;;;;;;;3.70;1.58;;;1.20;99.90;;;;;;5004462;28;20065;-76
2021/01/24 06:49:41;;;;;;;3.20;1.45;;;1.20;99.90;;;;;;5003800;28;20066;-77
2021/01/24 06:52:21;;;;;;;11.80;2.70;;;1.10;99.90;;;;;;5003896;28;20102;-75
2021/01/24 06:54:51;;;;;;;26.38;8.80;;;1.20;99.90;;;;;;5002461;28;20149;-76
2021/01/24 06:57:30;;;;;;;5.05;2.10;;;1.10;99.90;;;;;;5004298;28;20022;-76
2021/01/24 07:00:34;;;;;;;30.02;10.63;;;1.10;99.90;;;;;;5003834;28;20034;-76
2021/01/24 07:03:18;;;;;;;16.27;6.65;;;1.10;99.90;;;;;;5002447;28;20115;-79
2021/01/24 07:05:44;;;;;;;8.05;3.53;;;1.20;99.90;;;;;;5003507;28;20053;-75
2021/01/24 07:08:31;;;;;;;8.25;2.05;;;1.10;99.90;;;;;;5003712;28;20112;-76
2021/01/24 07:10:57;;;;;;;14.25;4.90;;;1.00;99.90;;;;;;5003124;28;20072;-76
2021/01/24 07:13:26;;;;;;;4.45;1.90;;;1.00;99.90;;;;;;5003505;28;20111;-76
2021/01/24 07:16:05;;;;;;;4.40;1.75;;;1.00;99.90;;;;;;5003473;28;20073;-81
2021/01/24 07:18:43;;;;;;;4.43;1.63;;;1.10;99.90;;;;;;5003466;28;20105;-76
2021/01/24 07:21:11;;;;;;;38.17;12.82;;;1.10;99.90;;;;;;5003791;28;20029;-76
2021/01/24 07:23:40;;;;;;;40.65;13.88;;;1.00;99.90;;;;;;5003666;28;20179;-75
2021/01/24 07:26:07;;;;;;;6.40;2.80;;;1.20;99.90;;;;;;5003552;28;20079;-76
2021/01/24 07:28:34;;;;;;;4.75;1.58;;;1.10;99.90;;;;;;5002513;28;20045;-75
2021/01/24 07:31:02;;;;;;;7.03;2.90;;;1.30;99.90;;;;;;5003908;28;20292;-76
2021/01/24 07:33:30;;;;;;;6.32;2.65;;;1.40;99.90;;;;;;5003326;28;20025;-77
2021/01/24 07:36:02;;;;;;;4.30;1.58;;;1.30;99.90;;;;;;5003329;28;20496;-82
2021/01/24 07:38:28;;;;;;;7.18;2.80;;;1.20;99.90;;;;;;5003288;28;20252;-78
2021/01/24 07:40:56;;;;;;;3.15;1.83;;;1.30;99.90;;;;;;5003585;28;20018;-75
2021/01/24 07:43:23;;;;;;;5.15;2.53;;;1.30;99.90;;;;;;5003291;28;20161;-78
2021/01/24 07:45:49;;;;;;;8.18;3.13;;;1.20;99.90;;;;;;5003650;28;20469;-77
2021/01/24 07:48:15;;;;;;;3.90;2.15;;;1.20;99.90;;;;;;5003708;28;20026;-76
2021/01/24 07:50:41;;;;;;;3.92;2.15;;;1.20;99.90;;;;;;5005830;28;20037;-75
2021/01/24 07:53:09;;;;;;;5.75;1.90;;;1.20;99.90;;;;;;5007596;28;20030;-75
2021/01/24 07:55:37;;;;;;;5.22;2.88;;;1.20;99.90;;;;;;5007040;28;20429;-80
2021/01/24 07:58:03;;;;;;;6.43;2.40;;;1.20;99.90;;;;;;5007149;28;20086;-76
2021/01/24 08:00:29;;;;;;;3.70;1.65;;;1.30;99.90;;;;;;5007298;28;20023;-76
2021/01/24 08:02:55;;;;;;;4.70;1.98;;;1.30;99.90;;;;;;5006951;28;20432;-75
2021/01/24 08:05:22;;;;;;;2.97;1.70;;;1.30;99.90;;;;;;5007217;28;20042;-78
2021/01/24 08:07:49;;;;;;;3.28;1.73;;;1.30;99.90;;;;;;5007293;28;20437;-76
2021/01/24 08:10:15;;;;;;;11.18;4.80;;;1.30;99.90;;;;;;5007566;28;20083;-74
2021/01/24 08:12:41;;;;;;;4.60;2.70;;;1.30;99.90;;;;;;5006877;28;20029;-75
2021/01/24 08:15:07;;;;;;;5.28;2.40;;;1.30;99.90;;;;;;5006795;28;20272;-77
2021/01/24 08:17:34;;;;;;;4.38;2.30;;;1.30;99.90;;;;;;5006680;28;20030;-79
2021/01/24 08:20:01;;;;;;;3.33;1.63;;;1.40;99.90;;;;;;5006809;28;20045;-77
2021/01/24 08:22:27;;;;;;;8.75;1.70;;;1.40;99.90;;;;;;5006947;28;20408;-77
2021/01/24 08:24:55;;;;;;;4.43;2.08;;;1.30;99.90;;;;;;5007119;28;20030;-77
2021/01/24 08:27:20;;;;;;;3.20;1.75;;;1.40;99.90;;;;;;5006579;28;20488;-76
2021/01/24 08:29:46;;;;;;;4.32;2.10;;;1.40;99.90;;;;;;5006214;28;20030;-76
2021/01/24 08:32:15;;;;;;;3.20;1.70;;;1.40;99.90;;;;;;5006391;28;20057;-75
2021/01/24 08:34:41;;;;;;;4.97;1.92;;;1.50;99.90;;;;;;5006866;28;20030;-76
2021/01/24 08:37:08;;;;;;;3.80;1.90;;;1.50;99.90;;;;;;5007283;28;20385;-78
2021/01/24 08:39:34;;;;;;;8.32;3.78;;;1.50;99.90;;;;;;5006463;28;20021;-77
2021/01/24 08:42:04;;;;;;;32.30;10.30;;;1.50;99.90;;;;;;5006204;28;20034;-76
2021/01/24 08:44:29;;;;;;;16.45;6.15;;;1.70;99.90;;;;;;5006407;28;20026;-76
2021/01/24 08:47:03;;;;;;;10.80;5.63;;;1.60;99.90;;;;;;5004869;28;20033;-76
2021/01/24 08:49:32;;;;;;;5.32;2.80;;;1.80;99.90;;;;;;5006136;28;20026;-76
2021/01/24 08:51:59;;;;;;;4.30;2.15;;;1.80;99.90;;;;;;5006590;28;20198;-76
2021/01/24 08:54:34;;;;;;;4.13;2.17;;;1.90;99.90;;;;;;5006193;28;20040;-76
2021/01/24 08:57:18;;;;;;;;;;;1.90;99.90;;;;;;5006801;28;20087;-75
2021/01/24 08:59:50;;;;;;;2.83;1.35;;;1.90;99.90;;;;;;5006214;28;19905;-78
2021/01/24 09:02:29;;;;;;;6.20;1.52;;;2.00;99.90;;;;;;5005055;28;20034;-77
2021/01/24 09:04:54;;;;;;;3.83;1.45;;;2.00;99.90;;;;;;5005846;28;20032;-76
2021/01/24 09:07:20;;;;;;;3.13;2.00;;;1.90;99.90;;;;;;5004798;28;20026;-76
2021/01/24 09:09:48;;;;;;;2.95;1.30;;;2.00;99.90;;;;;;5005777;28;20552;-76
2021/01/24 09:12:16;;;;;;;2.35;1.40;;;2.10;99.90;;;;;;5004255;28;20026;-77
2021/01/24 09:14:43;;;;;;;3.10;1.65;;;2.10;99.90;;;;;;5005933;28;20036;-76
2021/01/24 09:17:22;;;;;;;3.75;1.73;;;2.20;99.90;;;;;;5005901;28;20390;-81
2021/01/24 09:19:48;;;;;;;4.88;1.98;;;2.30;99.90;;;;;;5005779;28;20476;-80
2021/01/24 09:22:17;;;;;;;3.92;1.80;;;2.40;99.90;;;;;;5005664;28;20034;-76
2021/01/24 09:24:44;;;;;;;4.28;1.80;;;2.50;99.90;;;;;;5005439;28;20034;-76
2021/01/24 09:27:12;;;;;;;3.10;1.40;;;2.50;99.90;;;;;;5005901;28;20539;-76
2021/01/24 09:29:39;;;;;;;6.13;2.53;;;2.50;99.90;;;;;;5005040;28;20026;-76
2021/01/24 09:32:06;;;;;;;3.05;1.33;;;2.50;99.90;;;;;;5004582;28;20796;-76
2021/01/24 09:34:32;;;;;;;4.78;2.20;;;2.50;99.90;;;;;;5005152;28;20420;-75
2021/01/24 09:36:58;;;;;;;3.97;1.70;;;2.50;99.90;;;;;;5005925;28;20034;-76
2021/01/24 09:39:24;;;;;;;4.95;2.85;;;2.40;99.90;;;;;;5004025;28;20554;-81
2021/01/24 09:41:50;;;;;;;4.05;2.03;;;2.30;99.90;;;;;;5005502;28;20033;-77
2021/01/24 09:44:16;;;;;;;4.88;2.08;;;2.40;99.90;;;;;;5005297;28;20030;-78
2021/01/24 09:46:41;;;;;;;2.55;1.73;;;2.50;99.90;;;;;;5005061;28;20030;-76
2021/01/24 09:49:07;;;;;;;3.63;1.80;;;2.50;99.90;;;;;;5005169;28;20025;-76
2021/01/24 09:51:33;;;;;;;4.13;1.85;;;2.40;99.90;;;;;;5005208;28;20029;-75
2021/01/24 09:53:59;;;;;;;5.15;2.10;;;2.50;99.90;;;;;;5005193;28;20026;-76
2021/01/24 09:56:26;;;;;;;4.00;1.73;;;2.50;99.90;;;;;;5004859;28;20507;-76
2021/01/24 09:58:53;;;;;;;3.80;1.73;;;2.60;99.90;;;;;;5005030;28;20026;-76
2021/01/24 10:01:19;;;;;;;4.63;1.85;;;2.40;99.90;;;;;;5005016;28;20064;-77
2021/01/24 10:03:52;;;;;;;3.60;1.83;;;2.50;99.90;;;;;;5004749;28;20072;-80
2021/01/24 10:06:19;;;;;;;3.95;1.75;;;2.60;99.90;;;;;;5004976;28;20527;-77
2021/01/24 10:08:46;;;;;;;2.38;1.27;;;2.60;99.90;;;;;;5004947;28;20026;-77
2021/01/24 10:11:11;;;;;;;6.03;2.15;;;2.50;99.90;;;;;;5004848;28;20034;-78
2021/01/24 10:13:38;;;;;;;4.55;2.10;;;2.60;99.90;;;;;;5004767;28;20045;-76
2021/01/24 10:16:04;;;;;;;4.40;2.17;;;2.60;99.90;;;;;;5004886;28;20034;-75
2021/01/24 10:18:29;;;;;;;4.95;1.80;;;2.70;99.90;;;;;;5004542;28;20026;-76
2021/01/24 10:20:55;;;;;;;4.57;1.90;;;2.70;99.90;;;;;;5005058;28;20308;-75
2021/01/24 10:23:25;;;;;;;2.42;1.40;;;2.70;99.90;;;;;;5004414;28;20088;-78
2021/01/24 10:25:54;;;;;;;4.07;1.55;;;2.80;99.90;;;;;;5004410;28;20022;-79
2021/01/24 10:28:23;;;;;;;4.70;1.90;;;3.00;99.90;;;;;;5004241;28;20022;-82
2021/01/24 10:30:49;;;;;;;3.25;1.45;;;3.00;99.90;;;;;;5004266;28;20042;-77
2021/01/24 10:33:15;;;;;;;3.75;1.40;;;3.10;99.10;;;;;;5004556;28;20368;-76
2021/01/24 10:35:42;;;;;;;3.13;1.27;;;3.30;99.10;;;;;;5004087;28;20152;-76
2021/01/24 10:38:08;;;;;;;5.72;1.92;;;3.30;98.40;;;;;;5004422;28;20261;-76
2021/01/24 10:40:35;;;;;;;2.63;1.33;;;3.40;97.60;;;;;;5003929;28;20193;-76
2021/01/24 10:43:02;;;;;;;2.67;1.23;;;3.50;98.20;;;;;;5004474;28;20088;-80
2021/01/24 10:45:28;;;;;;;3.85;1.60;;;3.50;97.80;;;;;;5004368;28;20196;-74
2021/01/24 10:47:54;;;;;;;2.45;1.30;;;3.60;97.60;;;;;;5002682;28;20505;-76
2021/01/24 10:50:20;;;;;;;2.53;1.20;;;3.70;97.50;;;;;;5004216;28;20404;-77
2021/01/24 10:52:46;;;;;;;4.05;1.50;;;3.70;97.20;;;;;;5002354;28;20029;-75
2021/01/24 10:55:12;;;;;;;2.58;1.23;;;3.50;98.90;;;;;;5003903;28;20030;-76
2021/01/24 10:57:38;;;;;;;2.83;1.30;;;3.50;97.80;;;;;;5003755;28;20081;-76
2021/01/24 11:00:07;;;;;;;2.60;1.20;;;3.70;97.60;;;;;;5002894;28;20404;-77
2021/01/24 11:02:32;;;;;;;3.28;1.45;;;3.80;97.40;;;;;;5003504;28;20045;-82
2021/01/24 11:04:58;;;;;;;2.20;1.10;;;3.90;97.30;;;;;;5003941;28;20463;-77
2021/01/24 11:07:24;;;;;;;3.67;1.45;;;3.90;96.80;;;;;;5003607;28;20451;-77
2021/01/24 11:09:49;;;;;;;2.85;1.40;;;4.10;96.70;;;;;;5003676;28;20030;-75
2021/01/24 11:12:15;;;;;;;2.35;1.35;;;4.20;97.00;;;;;;5003698;28;20022;-77
2021/01/24 11:14:42;;;;;;;2.70;1.42;;;4.30;96.00;;;;;;5003239;28;20041;-77
2021/01/24 11:17:08;;;;;;;5.25;3.17;;;4.40;96.00;;;;;;5003844;28;20169;-77
2021/01/24 11:19:35;;;;;;;3.47;2.17;;;4.50;96.00;;;;;;5004009;28;20546;-77
2021/01/24 11:22:01;;;;;;;3.88;2.10;;;4.60;96.20;;;;;;5002770;28;20057;-79
2021/01/24 11:24:27;;;;;;;2.45;1.23;;;4.60;96.70;;;;;;5003212;28;20030;-75
2021/01/24 11:26:53;;;;;;;1.98;1.05;;;4.60;95.70;;;;;;5002849;28;20053;-76
2021/01/24 11:29:19;;;;;;;2.88;1.00;;;4.60;96.20;;;;;;5003460;28;20026;-76
2021/01/24 11:31:44;;;;;;;2.72;1.23;;;4.60;96.20;;;;;;5003293;28;20049;-75
2021/01/24 11:34:10;;;;;;;2.75;1.10;;;4.60;95.20;;;;;;5003384;28;20034;-76
2021/01/24 11:36:36;;;;;;;2.25;1.20;;;4.70;95.40;;;;;;5003619;28;20108;-81
2021/01/24 11:39:03;;;;;;;2.70;1.05;;;4.40;96.00;;;;;;5003722;28;20121;-77
2021/01/24 11:41:29;;;;;;;3.17;1.45;;;4.50;94.90;;;;;;5003504;28;20189;-75
2021/01/24 11:43:55;;;;;;;2.35;1.10;;;4.60;94.30;;;;;;5003884;28;20208;-78
2021/01/24 11:46:21;;;;;;;3.92;1.55;;;4.70;94.60;;;;;;5003999;28;20113;-76
2021/01/24 11:48:47;;;;;;;2.80;1.10;;;4.70;94.50;;;;;;5003173;28;20474;-76
2021/01/24 11:51:12;;;;;;;4.45;1.52;;;4.70;94.20;;;;;;5003478;28;20022;-77
2021/01/24 11:53:38;;;;;;;2.95;1.38;;;4.60;95.20;;;;;;5002770;28;20041;-76
2021/01/24 11:56:05;;;;;;;2.63;1.05;;;4.70;94.60;;;;;;5003776;28;20022;-78
2021/01/24 11:58:31;;;;;;;1.60;0.90;;;4.80;94.60;;;;;;5003960;28;20400;-76
2021/01/24 12:00:56;;;;;;;2.03;1.08;;;4.80;94.20;;;;;;5003393;28;20101;-76
2021/01/24 12:03:22;;;;;;;2.47;1.10;;;4.90;93.60;;;;;;5003390;28;20104;-78
2021/01/24 12:05:48;;;;;;;2.83;1.58;;;5.00;94.20;;;;;;5003405;28;20041;-75
2021/01/24 12:08:13;;;;;;;2.63;1.20;;;5.00;94.00;;;;;;5002318;28;20030;-76
2021/01/24 12:10:39;;;;;;;4.30;1.55;;;5.00;94.60;;;;;;5003132;28;20022;-78
2021/01/24 12:13:05;;;;;;;2.42;1.40;;;4.90;93.70;;;;;;5003288;28;20543;-82
2021/01/24 12:15:30;;;;;;;2.85;1.67;;;5.00;94.90;;;;;;5003158;28;20034;-77
2021/01/24 12:17:56;;;;;;;3.28;1.60;;;4.90;95.10;;;;;;5002970;28;20384;-76
2021/01/24 12:20:22;;;;;;;3.67;1.33;;;4.90;95.40;;;;;;5003315;28;20056;-77
2021/01/24 12:22:48;;;;;;;3.47;1.58;;;5.00;95.60;;;;;;5003231;28;20452;-76
2021/01/24 12:25:14;;;;;;;2.95;1.35;;;5.10;94.40;;;;;;5003388;28;20507;-77
2021/01/24 12:27:39;;;;;;;5.07;1.40;;;5.20;94.90;;;;;;5003520;28;20459;-76
2021/01/24 12:30:06;;;;;;;4.78;2.08;;;5.20;95.20;;;;;;5002470;28;20457;-77
2021/01/24 12:32:32;;;;;;;3.40;1.55;;;5.20;95.30;;;;;;5002856;28;20038;-76
2021/01/24 12:34:58;;;;;;;4.30;1.58;;;5.20;95.70;;;;;;5003383;28;20026;-77
2021/01/24 12:37:24;;;;;;;4.53;1.98;;;5.10;95.90;;;;;;5004800;28;20049;-76
2021/01/24 12:39:49;;;;;;;15.73;14.27;;;5.20;95.50;;;;;;5006632;28;20097;-76
2021/01/24 12:42:16;;;;;;;16.00;14.45;;;5.50;95.90;;;;;;5006308;28;20034;-76
2021/01/24 12:44:42;;;;;;;12.82;11.00;;;5.60;95.50;;;;;;5006252;28;20435;-77
2021/01/24 12:47:09;;;;;;;23.67;15.55;;;5.50;95.20;;;;;;5006385;28;20034;-77
2021/01/24 12:49:36;;;;;;;12.25;7.10;;;5.50;96.00;;;;;;5006128;28;20392;-77
2021/01/24 12:52:02;;;;;;;36.20;25.25;;;5.50;96.30;;;;;;5006282;28;20045;-76
2021/01/24 12:54:28;;;;;;;22.42;15.95;;;5.60;96.20;;;;;;5005820;28;20037;-77
2021/01/24 12:56:54;;;;;;;9.20;7.03;;;5.60;95.80;;;;;;5004404;28;20026;-76
2021/01/24 12:59:19;;;;;;;7.63;4.13;;;5.70;96.20;;;;;;5005966;28;20028;-77
2021/01/24 13:01:45;;;;;;;8.52;5.63;;;5.60;95.30;;;;;;5005658;28;20447;-78